createdAt,value
2023-03-24T00:02:15.806Z,31.06
2023-03-24T00:06:15.824Z,31.47
2023-03-24T00:10:15.904Z,29.88
2023-03-24T00:14:16.139Z,27.97
2023-03-24T00:18:16.253Z,29.84
2023-03-24T00:22:16.403Z,28.61
2023-03-24T00:26:16.590Z,30.73
2023-03-24T00:30:17.147Z,29.29
2023-03-24T00:34:16.803Z,29.80
2023-03-24T00:38:16.973Z,30.94
2023-03-24T00:42:17.676Z,27.75
2023-03-24T00:46:17.352Z,29.68
2023-03-24T00:50:17.466Z,30.69
2023-03-24T00:54:17.709Z,29.41
2023-03-24T00:58:17.823Z,28.96
2023-03-24T01:02:18.033Z,29.87
2023-03-24T01:06:18.234Z,28.72
2023-03-24T01:10:18.472Z,29.05
2023-03-24T01:14:18.557Z,30.66
2023-03-24T01:18:18.749Z,26.76
2023-03-24T01:22:19.823Z,28.96
2023-03-24T01:26:19.063Z,26.29
2023-03-24T01:30:19.812Z,27.12
2023-03-24T01:34:19.669Z,30.55
2023-03-24T01:38:19.634Z,28.82
2023-03-24T01:42:19.772Z,28.15
2023-03-24T01:46:20.039Z,26.63
2023-03-24T01:50:20.147Z,28.39
2023-03-24T01:54:20.341Z,28.72
2023-03-24T01:58:20.605Z,28.71
2023-03-24T02:02:20.755Z,28.80
2023-03-24T02:06:20.929Z,29.04
2023-03-24T02:10:21.152Z,28.97
2023-03-24T02:14:21.317Z,28.99
2023-03-24T02:18:21.510Z,30.66
2023-03-24T02:22:21.737Z,29.61
2023-03-24T02:26:21.897Z,29.77
2023-03-24T02:30:22.228Z,28.56
2023-03-24T02:34:22.310Z,29.52
2023-03-24T02:38:22.560Z,29.39
2023-03-24T02:42:22.815Z,29.36
2023-03-24T02:46:23.037Z,27.37
2023-03-24T02:50:23.175Z,26.89
2023-03-24T02:54:23.369Z,29.40
2023-03-24T02:58:23.580Z,27.16
2023-03-24T03:02:23.823Z,29.31
2023-03-24T03:06:23.970Z,30.71
2023-03-24T03:10:24.175Z,27.40
2023-03-24T03:14:24.384Z,28.83
2023-03-24T03:18:24.721Z,29.19
2023-03-24T03:22:24.809Z,30.83
2023-03-24T03:26:25.117Z,29.50
2023-03-24T03:30:25.011Z,26.03
2023-03-24T03:34:25.743Z,29.07
2023-03-24T03:38:25.009Z,28.12
2023-03-24T03:42:24.981Z,27.60
2023-03-24T03:46:24.934Z,30.91
2023-03-24T03:50:24.902Z,30.06
2023-03-24T03:54:24.864Z,28.50
2023-03-24T03:58:24.763Z,28.87
2023-03-24T04:02:24.994Z,30.29
2023-03-24T04:06:24.963Z,26.07
2023-03-24T04:10:24.920Z,27.80
2023-03-24T04:14:24.961Z,28.99
2023-03-24T04:18:24.835Z,27.93
2023-03-24T04:22:24.803Z,27.82
2023-03-24T04:26:25.284Z,28.57
2023-03-24T04:30:24.745Z,28.85
2023-03-24T04:34:24.652Z,29.07
2023-03-24T04:38:24.689Z,27.00
2023-03-24T04:42:24.791Z,25.56
2023-03-24T04:46:24.761Z,29.22
2023-03-24T04:50:24.713Z,27.26
2023-03-24T04:54:24.766Z,27.38
2023-03-24T04:58:24.663Z,28.58
2023-03-24T05:02:24.521Z,28.88
2023-03-24T05:06:24.494Z,28.82
2023-03-24T05:10:24.464Z,30.37
2023-03-24T05:14:24.465Z,31.10
2023-03-24T05:18:24.410Z,26.13
2023-03-24T05:22:24.586Z,29.41
2023-03-24T05:26:24.572Z,28.53
2023-03-24T05:30:27.294Z,28.03
2023-03-24T05:34:24.600Z,29.92
2023-03-24T05:38:24.422Z,31.45
2023-03-24T05:42:24.397Z,32.81
2023-03-24T05:46:26.421Z,34.36
2023-03-24T05:50:24.330Z,32.03
2023-03-24T05:54:24.469Z,31.05
2023-03-24T05:58:24.791Z,30.49
2023-03-24T06:02:24.975Z,28.22
2023-03-24T06:06:24.903Z,31.01
2023-03-24T06:10:25.014Z,29.61
2023-03-24T06:14:25.131Z,30.60
2023-03-24T06:18:25.219Z,31.69
2023-03-24T06:22:26.396Z,30.63
2023-03-24T06:26:28.496Z,30.29
2023-03-24T06:30:25.660Z,27.71
2023-03-24T06:34:25.557Z,29.85
2023-03-24T06:38:25.218Z,30.76
2023-03-24T06:42:25.103Z,31.53
2023-03-24T06:46:25.504Z,36.02
2023-03-24T06:50:25.204Z,40.25
2023-03-24T06:54:26.165Z,41.25
2023-03-24T06:58:26.127Z,41.45
2023-03-24T07:02:24.992Z,42.00
2023-03-24T07:06:24.916Z,40.55
2023-03-24T07:10:24.900Z,39.34
2023-03-24T07:14:25.778Z,38.39
2023-03-24T07:18:24.904Z,38.17
2023-03-24T07:22:24.844Z,38.45
2023-03-24T07:26:25.675Z,38.69
2023-03-24T07:30:37.442Z,38.31
2023-03-24T07:34:25.866Z,30.99
2023-03-24T07:38:24.728Z,2.17
2023-03-24T07:42:25.283Z,23.41
2023-03-24T07:46:27.097Z,25.00
2023-03-24T07:50:25.386Z,26.18
2023-03-24T07:54:25.228Z,28.17
2023-03-24T07:58:25.970Z,25.76
2023-03-24T08:02:25.206Z,27.03
2023-03-24T08:06:26.371Z,25.83
2023-03-24T08:10:24.502Z,25.57
2023-03-24T08:14:26.299Z,48.68
2023-03-24T08:18:24.371Z,48.83
2023-03-24T08:22:24.735Z,66.08
2023-03-24T08:26:24.786Z,78.86
2023-03-24T08:39:02.249Z,25.00
2023-03-24T08:47:34.597Z,25.00
2023-03-24T08:51:23.850Z,25.00
2023-03-24T08:59:39.506Z,25.00
2023-03-24T09:03:47.281Z,25.00
2023-03-24T09:20:01.839Z,26.84
2023-03-24T09:28:11.714Z,20.06
2023-03-24T09:32:03.707Z,23.31
2023-03-24T09:36:08.782Z,13.64
2023-03-24T09:48:38.442Z,25.00
2023-03-24T09:52:49.815Z,25.00
2023-03-24T09:56:41.004Z,25.00
2023-03-24T10:04:59.464Z,25.00
2023-03-24T10:08:54.335Z,25.00
2023-03-24T10:12:57.409Z,30.17
2023-03-24T10:25:46.193Z,25.00
2023-03-24T10:34:20.220Z,25.00
2023-03-24T10:38:23.946Z,25.00
2023-03-24T10:46:35.968Z,25.00
2023-03-24T10:54:47.302Z,25.00
2023-03-24T11:03:06.065Z,25.00
2023-03-24T11:11:23.976Z,25.00
2023-03-24T11:15:26.661Z,27.40
2023-03-24T11:19:23.895Z,5.33
2023-03-24T11:23:23.856Z,35.74
2023-03-24T11:27:24.379Z,34.70
2023-03-24T11:31:23.836Z,87.06
2023-03-24T11:35:35.407Z,98.06
2023-03-24T11:39:35.851Z,103.39
2023-03-24T11:43:23.965Z,100.82
2023-03-24T11:47:23.625Z,107.90
2023-03-24T11:51:23.606Z,119.57
2023-03-24T11:55:23.738Z,119.05
2023-03-24T11:59:23.582Z,124.11
2023-03-24T12:03:23.574Z,133.95
2023-03-24T12:07:23.647Z,135.48
2023-03-24T12:11:23.369Z,183.96
2023-03-24T12:15:28.874Z,179.12
2023-03-24T12:19:24.619Z,178.14
2023-03-24T12:23:23.363Z,170.74
2023-03-24T12:27:24.229Z,174.75
2023-03-24T12:31:24.408Z,175.68
2023-03-24T12:35:23.320Z,176.28
2023-03-24T12:39:23.268Z,173.62
2023-03-24T12:43:23.445Z,175.01
2023-03-24T12:47:23.628Z,173.45
